Bemidji, Minnesota
Current Conditions -  °F | °C
As of 11:12 AM on Friday 28 Nov 2014 (Local Time) from KBJI Reporting Station
Light Snow Light Snow  
Wind Chill: -19°   Ceiling: 1400
Heat Index: -12°   Visibility: 4mi
Dew Point: -14°   Wind: 9mph
Humidity: 81%   Direction: 120°ESE
Pressure: 29.9"   Gusts: NA
Location:  47.47°N, 94.88°W
Report Text: KBJI 281712Z AUTO 12008KT 4SM -SN BKN014 BKN019 OVC060 M12/M14 A2990 RMK AO2 T11171144
Loading
Personal Weather Stations






























Interactive Weather Map New forecast layout! Learn more

10-Day Weather Forecast

Advertisements
Track Severe Weather on mobile